sensor_id;sensor_type;location;lat;lon;timestamp;P1;durP1;ratioP1;P2;durP2;ratioP2
71095;SDS011;58753;49.440;11.126;2022-12-07T00:00:48;8.60;;;4.50;;
71095;SDS011;58753;49.440;11.126;2022-12-07T00:03:13;6.90;;;3.77;;
71095;SDS011;58753;49.440;11.126;2022-12-07T00:05:38;5.38;;;2.78;;
71095;SDS011;58753;49.440;11.126;2022-12-07T00:08:04;11.13;;;4.90;;
71095;SDS011;58753;49.440;11.126;2022-12-07T00:10:29;8.80;;;4.47;;
71095;SDS011;58753;49.440;11.126;2022-12-07T00:12:54;8.77;;;4.60;;
71095;SDS011;58753;49.440;11.126;2022-12-07T00:15:20;8.02;;;5.18;;
71095;SDS011;58753;49.440;11.126;2022-12-07T00:17:45;6.63;;;4.50;;
71095;SDS011;58753;49.440;11.126;2022-12-07T00:20:11;7.43;;;4.07;;
71095;SDS011;58753;49.440;11.126;2022-12-07T00:22:36;9.03;;;4.63;;
71095;SDS011;58753;49.440;11.126;2022-12-07T00:25:01;9.10;;;5.43;;
71095;SDS011;58753;49.440;11.126;2022-12-07T00:27:27;12.27;;;5.40;;
71095;SDS011;58753;49.440;11.126;2022-12-07T00:29:52;9.17;;;5.00;;
71095;SDS011;58753;49.440;11.126;2022-12-07T00:32:18;10.17;;;5.60;;
71095;SDS011;58753;49.440;11.126;2022-12-07T00:34:43;9.40;;;5.07;;
71095;SDS011;58753;49.440;11.126;2022-12-07T00:37:08;8.17;;;5.13;;
71095;SDS011;58753;49.440;11.126;2022-12-07T00:39:34;8.33;;;5.33;;
71095;SDS011;58753;49.440;11.126;2022-12-07T00:41:59;9.37;;;5.37;;
71095;SDS011;58753;49.440;11.126;2022-12-07T00:44:24;7.80;;;4.80;;
71095;SDS011;58753;49.440;11.126;2022-12-07T00:46:50;9.90;;;5.20;;
71095;SDS011;58753;49.440;11.126;2022-12-07T00:49:15;10.97;;;5.33;;
71095;SDS011;58753;49.440;11.126;2022-12-07T00:51:41;11.87;;;5.60;;
71095;SDS011;58753;49.440;11.126;2022-12-07T00:54:06;10.43;;;4.83;;
71095;SDS011;58753;49.440;11.126;2022-12-07T00:56:31;10.37;;;5.27;;
71095;SDS011;58753;49.440;11.126;2022-12-07T00:58:58;11.63;;;5.85;;
71095;SDS011;58753;49.440;11.126;2022-12-07T01:01:25;10.63;;;5.43;;
71095;SDS011;58753;49.440;11.126;2022-12-07T01:03:52;12.15;;;5.30;;
71095;SDS011;58753;49.440;11.126;2022-12-07T01:06:19;9.27;;;5.35;;
71095;SDS011;58753;49.440;11.126;2022-12-07T01:08:45;10.02;;;5.43;;
71095;SDS011;58753;49.440;11.126;2022-12-07T01:11:15;12.77;;;6.30;;
71095;SDS011;58753;49.440;11.126;2022-12-07T01:13:42;10.77;;;5.90;;
71095;SDS011;58753;49.440;11.126;2022-12-07T01:16:08;10.13;;;5.40;;
71095;SDS011;58753;49.440;11.126;2022-12-07T01:18:36;8.88;;;4.72;;
71095;SDS011;58753;49.440;11.126;2022-12-07T01:23:34;10.65;;;5.13;;
71095;SDS011;58753;49.440;11.126;2022-12-07T01:26:02;11.00;;;6.22;;
71095;SDS011;58753;49.440;11.126;2022-12-07T01:28:29;10.60;;;6.20;;
71095;SDS011;58753;49.440;11.126;2022-12-07T01:33:29;10.82;;;6.13;;
71095;SDS011;58753;49.440;11.126;2022-12-07T01:36:12;11.70;;;7.13;;
71095;SDS011;58753;49.440;11.126;2022-12-07T01:38:46;12.02;;;5.97;;
71095;SDS011;58753;49.440;11.126;2022-12-07T01:41:13;11.50;;;5.85;;
71095;SDS011;58753;49.440;11.126;2022-12-07T01:46:32;10.50;;;6.05;;
71095;SDS011;58753;49.440;11.126;2022-12-07T01:48:57;12.00;;;5.87;;
71095;SDS011;58753;49.440;11.126;2022-12-07T01:51:24;10.50;;;6.07;;
71095;SDS011;58753;49.440;11.126;2022-12-07T01:53:50;10.77;;;6.03;;
71095;SDS011;58753;49.440;11.126;2022-12-07T01:56:17;12.07;;;5.75;;
71095;SDS011;58753;49.440;11.126;2022-12-07T01:58:45;14.53;;;6.50;;
71095;SDS011;58753;49.440;11.126;2022-12-07T02:01:11;11.15;;;6.13;;
71095;SDS011;58753;49.440;11.126;2022-12-07T02:03:41;11.80;;;6.37;;
71095;SDS011;58753;49.440;11.126;2022-12-07T02:06:08;10.87;;;6.00;;
71095;SDS011;58753;49.440;11.126;2022-12-07T02:08:35;12.05;;;6.45;;
71095;SDS011;58753;49.440;11.126;2022-12-07T02:11:01;12.37;;;6.77;;
71095;SDS011;58753;49.440;11.126;2022-12-07T02:13:30;11.45;;;6.85;;
71095;SDS011;58753;49.440;11.126;2022-12-07T02:18:39;12.65;;;7.28;;
71095;SDS011;58753;49.440;11.126;2022-12-07T02:30:10;14.55;;;7.40;;
71095;SDS011;58753;49.440;11.126;2022-12-07T02:32:41;11.50;;;5.88;;
71095;SDS011;58753;49.440;11.126;2022-12-07T02:35:28;13.10;;;7.20;;
71095;SDS011;58753;49.440;11.126;2022-12-07T02:38:19;12.67;;;6.97;;
71095;SDS011;58753;49.440;11.126;2022-12-07T02:40:52;12.85;;;6.28;;
71095;SDS011;58753;49.440;11.126;2022-12-07T02:43:39;15.85;;;6.78;;
71095;SDS011;58753;49.440;11.126;2022-12-07T02:46:10;15.27;;;7.38;;
71095;SDS011;58753;49.440;11.126;2022-12-07T02:48:39;12.27;;;6.03;;
71095;SDS011;58753;49.440;11.126;2022-12-07T02:51:06;12.77;;;6.70;;
71095;SDS011;58753;49.440;11.126;2022-12-07T03:07:31;15.57;;;7.82;;
71095;SDS011;58753;49.440;11.126;2022-12-07T03:12:46;18.03;;;8.50;;
71095;SDS011;58753;49.440;11.126;2022-12-07T03:15:21;16.95;;;8.13;;
71095;SDS011;58753;49.440;11.126;2022-12-07T03:17:58;14.02;;;7.28;;
71095;SDS011;58753;49.440;11.126;2022-12-07T03:20:25;15.05;;;7.20;;
71095;SDS011;58753;49.440;11.126;2022-12-07T03:22:54;14.75;;;8.00;;
71095;SDS011;58753;49.440;11.126;2022-12-07T03:25:19;15.13;;;7.43;;
71095;SDS011;58753;49.440;11.126;2022-12-07T03:27:56;16.33;;;7.78;;
71095;SDS011;58753;49.440;11.126;2022-12-07T03:30:37;14.87;;;8.23;;
71095;SDS011;58753;49.440;11.126;2022-12-07T03:33:23;17.48;;;8.32;;
71095;SDS011;58753;49.440;11.126;2022-12-07T03:35:56;15.13;;;7.28;;
71095;SDS011;58753;49.440;11.126;2022-12-07T03:41:09;15.88;;;8.40;;
71095;SDS011;58753;49.440;11.126;2022-12-07T03:43:40;14.13;;;7.17;;
71095;SDS011;58753;49.440;11.126;2022-12-07T03:48:41;16.10;;;7.60;;
71095;SDS011;58753;49.440;11.126;2022-12-07T03:51:28;15.45;;;7.93;;
71095;SDS011;58753;49.440;11.126;2022-12-07T03:54:05;17.05;;;8.30;;
71095;SDS011;58753;49.440;11.126;2022-12-07T03:56:38;17.83;;;7.77;;
71095;SDS011;58753;49.440;11.126;2022-12-07T03:59:05;14.95;;;7.53;;
71095;SDS011;58753;49.440;11.126;2022-12-07T04:01:31;14.38;;;7.53;;
71095;SDS011;58753;49.440;11.126;2022-12-07T04:03:57;16.25;;;7.88;;
71095;SDS011;58753;49.440;11.126;2022-12-07T04:06:22;16.63;;;8.37;;
71095;SDS011;58753;49.440;11.126;2022-12-07T04:08:47;17.57;;;7.50;;
71095;SDS011;58753;49.440;11.126;2022-12-07T04:11:13;14.87;;;8.23;;
71095;SDS011;58753;49.440;11.126;2022-12-07T04:13:38;17.27;;;7.83;;
71095;SDS011;58753;49.440;11.126;2022-12-07T04:16:22;15.35;;;8.23;;
71095;SDS011;58753;49.440;11.126;2022-12-07T04:18:47;15.40;;;7.57;;
71095;SDS011;58753;49.440;11.126;2022-12-07T04:21:13;18.53;;;8.17;;
71095;SDS011;58753;49.440;11.126;2022-12-07T04:23:38;18.52;;;7.75;;
71095;SDS011;58753;49.440;11.126;2022-12-07T04:26:03;18.03;;;8.17;;
71095;SDS011;58753;49.440;11.126;2022-12-07T04:28:29;22.03;;;9.73;;
71095;SDS011;58753;49.440;11.126;2022-12-07T04:30:54;16.93;;;8.53;;
71095;SDS011;58753;49.440;11.126;2022-12-07T04:33:20;17.27;;;7.88;;
71095;SDS011;58753;49.440;11.126;2022-12-07T04:35:45;18.67;;;9.27;;
71095;SDS011;58753;49.440;11.126;2022-12-07T04:38:10;20.30;;;9.67;;
71095;SDS011;58753;49.440;11.126;2022-12-07T04:40:36;19.43;;;9.43;;
71095;SDS011;58753;49.440;11.126;2022-12-07T04:43:01;22.20;;;10.90;;
71095;SDS011;58753;49.440;11.126;2022-12-07T04:45:26;24.75;;;10.25;;
71095;SDS011;58753;49.440;11.126;2022-12-07T04:47:52;23.20;;;10.67;;
71095;SDS011;58753;49.440;11.126;2022-12-07T04:50:17;22.70;;;10.33;;
71095;SDS011;58753;49.440;11.126;2022-12-07T04:52:43;23.13;;;9.50;;
71095;SDS011;58753;49.440;11.126;2022-12-07T04:55:08;19.70;;;9.07;;
71095;SDS011;58753;49.440;11.126;2022-12-07T04:57:33;20.33;;;10.82;;
71095;SDS011;58753;49.440;11.126;2022-12-07T04:59:59;19.60;;;9.43;;
71095;SDS011;58753;49.440;11.126;2022-12-07T05:02:24;21.83;;;9.90;;
71095;SDS011;58753;49.440;11.126;2022-12-07T05:04:49;22.53;;;9.73;;
71095;SDS011;58753;49.440;11.126;2022-12-07T05:07:15;22.60;;;10.77;;
71095;SDS011;58753;49.440;11.126;2022-12-07T05:09:40;19.70;;;9.17;;
71095;SDS011;58753;49.440;11.126;2022-12-07T05:12:05;23.53;;;9.73;;
71095;SDS011;58753;49.440;11.126;2022-12-07T05:14:31;20.43;;;10.03;;
71095;SDS011;58753;49.440;11.126;2022-12-07T05:16:56;20.93;;;9.17;;
71095;SDS011;58753;49.440;11.126;2022-12-07T05:19:22;19.43;;;9.43;;
71095;SDS011;58753;49.440;11.126;2022-12-07T05:21:47;22.73;;;9.87;;
71095;SDS011;58753;49.440;11.126;2022-12-07T05:24:13;21.10;;;9.73;;
71095;SDS011;58753;49.440;11.126;2022-12-07T05:26:40;20.27;;;9.40;;
71095;SDS011;58753;49.440;11.126;2022-12-07T05:29:05;20.57;;;9.40;;
71095;SDS011;58753;49.440;11.126;2022-12-07T05:31:32;17.92;;;8.98;;
71095;SDS011;58753;49.440;11.126;2022-12-07T05:33:59;22.33;;;9.50;;
71095;SDS011;58753;49.440;11.126;2022-12-07T05:36:24;23.73;;;10.23;;
71095;SDS011;58753;49.440;11.126;2022-12-07T05:38:49;20.97;;;10.53;;
71095;SDS011;58753;49.440;11.126;2022-12-07T05:41:16;20.00;;;9.60;;
71095;SDS011;58753;49.440;11.126;2022-12-07T05:44:02;21.70;;;10.45;;
71095;SDS011;58753;49.440;11.126;2022-12-07T05:46:28;20.00;;;9.98;;
71095;SDS011;58753;49.440;11.126;2022-12-07T05:48:53;20.57;;;9.47;;
71095;SDS011;58753;49.440;11.126;2022-12-07T05:51:18;20.40;;;9.83;;
71095;SDS011;58753;49.440;11.126;2022-12-07T05:53:44;20.45;;;10.13;;
71095;SDS011;58753;49.440;11.126;2022-12-07T05:56:10;20.53;;;9.40;;
71095;SDS011;58753;49.440;11.126;2022-12-07T05:58:35;21.07;;;9.70;;
71095;SDS011;58753;49.440;11.126;2022-12-07T06:01:19;19.98;;;9.82;;
71095;SDS011;58753;49.440;11.126;2022-12-07T06:03:44;23.93;;;11.13;;
71095;SDS011;58753;49.440;11.126;2022-12-07T06:06:10;22.20;;;10.23;;
71095;SDS011;58753;49.440;11.126;2022-12-07T06:08:35;21.23;;;9.37;;
71095;SDS011;58753;49.440;11.126;2022-12-07T06:11:01;25.88;;;12.07;;
71095;SDS011;58753;49.440;11.126;2022-12-07T06:13:46;23.70;;;9.87;;
71095;SDS011;58753;49.440;11.126;2022-12-07T06:16:11;24.20;;;11.68;;
71095;SDS011;58753;49.440;11.126;2022-12-07T06:18:36;23.00;;;9.80;;
71095;SDS011;58753;49.440;11.126;2022-12-07T06:21:02;20.73;;;9.93;;
71095;SDS011;58753;49.440;11.126;2022-12-07T06:23:27;19.97;;;9.17;;
71095;SDS011;58753;49.440;11.126;2022-12-07T06:25:53;21.33;;;10.47;;
71095;SDS011;58753;49.440;11.126;2022-12-07T06:28:18;20.67;;;9.77;;
71095;SDS011;58753;49.440;11.126;2022-12-07T06:30:43;19.60;;;9.30;;
71095;SDS011;58753;49.440;11.126;2022-12-07T06:33:09;22.57;;;10.00;;
71095;SDS011;58753;49.440;11.126;2022-12-07T06:35:34;26.37;;;10.13;;
71095;SDS011;58753;49.440;11.126;2022-12-07T06:38:00;23.83;;;10.83;;
71095;SDS011;58753;49.440;11.126;2022-12-07T06:40:25;22.50;;;10.10;;
71095;SDS011;58753;49.440;11.126;2022-12-07T06:42:51;20.83;;;9.80;;
71095;SDS011;58753;49.440;11.126;2022-12-07T06:45:16;26.13;;;11.27;;
71095;SDS011;58753;49.440;11.126;2022-12-07T06:47:41;19.73;;;10.23;;
71095;SDS011;58753;49.440;11.126;2022-12-07T06:50:07;21.73;;;10.02;;
71095;SDS011;58753;49.440;11.126;2022-12-07T06:52:33;21.27;;;9.40;;
71095;SDS011;58753;49.440;11.126;2022-12-07T06:54:58;21.90;;;10.13;;
71095;SDS011;58753;49.440;11.126;2022-12-07T06:57:24;23.50;;;9.63;;
71095;SDS011;58753;49.440;11.126;2022-12-07T06:59:50;23.88;;;10.07;;
71095;SDS011;58753;49.440;11.126;2022-12-07T07:02:15;23.40;;;10.13;;
71095;SDS011;58753;49.440;11.126;2022-12-07T07:04:41;24.02;;;10.07;;
71095;SDS011;58753;49.440;11.126;2022-12-07T07:07:07;22.60;;;9.50;;
71095;SDS011;58753;49.440;11.126;2022-12-07T07:09:32;24.50;;;10.90;;
71095;SDS011;58753;49.440;11.126;2022-12-07T07:11:57;21.05;;;10.38;;
71095;SDS011;58753;49.440;11.126;2022-12-07T07:14:23;24.07;;;9.73;;
71095;SDS011;58753;49.440;11.126;2022-12-07T07:16:48;27.03;;;10.87;;
71095;SDS011;58753;49.440;11.126;2022-12-07T07:19:13;24.20;;;10.20;;
71095;SDS011;58753;49.440;11.126;2022-12-07T07:21:48;24.90;;;12.27;;
71095;SDS011;58753;49.440;11.126;2022-12-07T07:24:45;21.95;;;10.68;;
71095;SDS011;58753;49.440;11.126;2022-12-07T07:27:11;25.47;;;10.80;;
71095;SDS011;58753;49.440;11.126;2022-12-07T07:29:36;22.88;;;9.95;;
71095;SDS011;58753;49.440;11.126;2022-12-07T07:32:04;21.90;;;9.53;;
71095;SDS011;58753;49.440;11.126;2022-12-07T07:34:31;22.80;;;10.00;;
71095;SDS011;58753;49.440;11.126;2022-12-07T07:36:56;25.73;;;10.80;;
71095;SDS011;58753;49.440;11.126;2022-12-07T07:39:21;21.80;;;9.53;;
71095;SDS011;58753;49.440;11.126;2022-12-07T07:41:47;25.50;;;11.17;;
71095;SDS011;58753;49.440;11.126;2022-12-07T07:44:12;23.15;;;10.02;;
71095;SDS011;58753;49.440;11.126;2022-12-07T07:46:38;27.07;;;9.93;;
71095;SDS011;58753;49.440;11.126;2022-12-07T07:49:04;23.35;;;10.07;;
71095;SDS011;58753;49.440;11.126;2022-12-07T07:51:29;30.20;;;10.77;;
71095;SDS011;58753;49.440;11.126;2022-12-07T07:53:55;22.17;;;9.65;;
71095;SDS011;58753;49.440;11.126;2022-12-07T07:56:28;25.43;;;10.73;;
71095;SDS011;58753;49.440;11.126;2022-12-07T07:58:53;21.25;;;9.98;;
71095;SDS011;58753;49.440;11.126;2022-12-07T08:01:19;25.37;;;10.70;;
71095;SDS011;58753;49.440;11.126;2022-12-07T08:03:45;18.85;;;7.90;;
71095;SDS011;58753;49.440;11.126;2022-12-07T08:06:11;19.83;;;9.67;;
71095;SDS011;58753;49.440;11.126;2022-12-07T08:08:39;22.83;;;11.35;;
71095;SDS011;58753;49.440;11.126;2022-12-07T08:11:05;23.40;;;10.17;;
71095;SDS011;58753;49.440;11.126;2022-12-07T08:13:34;23.40;;;10.20;;
71095;SDS011;58753;49.440;11.126;2022-12-07T08:16:03;25.23;;;11.77;;
71095;SDS011;58753;49.440;11.126;2022-12-07T08:18:37;24.75;;;10.52;;
71095;SDS011;58753;49.440;11.126;2022-12-07T08:21:08;23.90;;;9.18;;
71095;SDS011;58753;49.440;11.126;2022-12-07T08:23:36;25.67;;;10.47;;
71095;SDS011;58753;49.440;11.126;2022-12-07T08:26:13;21.85;;;9.32;;
71095;SDS011;58753;49.440;11.126;2022-12-07T08:28:44;26.17;;;11.25;;
71095;SDS011;58753;49.440;11.126;2022-12-07T08:31:14;26.23;;;10.73;;
71095;SDS011;58753;49.440;11.126;2022-12-07T08:33:44;18.90;;;8.98;;
71095;SDS011;58753;49.440;11.126;2022-12-07T08:36:13;23.67;;;10.60;;
71095;SDS011;58753;49.440;11.126;2022-12-07T08:38:42;28.55;;;10.75;;
71095;SDS011;58753;49.440;11.126;2022-12-07T08:41:10;21.08;;;10.27;;
71095;SDS011;58753;49.440;11.126;2022-12-07T08:43:36;23.00;;;9.10;;
71095;SDS011;58753;49.440;11.126;2022-12-07T08:51:45;24.10;;;9.47;;
71095;SDS011;58753;49.440;11.126;2022-12-07T08:54:15;21.42;;;8.73;;
71095;SDS011;58753;49.440;11.126;2022-12-07T08:56:45;20.85;;;9.02;;
71095;SDS011;58753;49.440;11.126;2022-12-07T08:59:16;16.33;;;7.68;;
71095;SDS011;58753;49.440;11.126;2022-12-07T09:01:49;19.95;;;8.65;;
71095;SDS011;58753;49.440;11.126;2022-12-07T09:04:14;21.10;;;8.97;;
71095;SDS011;58753;49.440;11.126;2022-12-07T09:06:40;19.65;;;7.80;;
71095;SDS011;58753;49.440;11.126;2022-12-07T09:09:06;21.27;;;8.85;;
71095;SDS011;58753;49.440;11.126;2022-12-07T09:11:33;22.05;;;8.65;;
71095;SDS011;58753;49.440;11.126;2022-12-07T09:14:03;13.47;;;6.70;;
71095;SDS011;58753;49.440;11.126;2022-12-07T09:16:29;15.80;;;7.10;;
71095;SDS011;58753;49.440;11.126;2022-12-07T09:18:55;17.83;;;8.60;;
71095;SDS011;58753;49.440;11.126;2022-12-07T09:21:23;20.70;;;8.13;;
71095;SDS011;58753;49.440;11.126;2022-12-07T09:23:51;21.00;;;8.15;;
71095;SDS011;58753;49.440;11.126;2022-12-07T09:26:19;14.87;;;6.87;;
71095;SDS011;58753;49.440;11.126;2022-12-07T09:28:47;13.32;;;5.68;;
71095;SDS011;58753;49.440;11.126;2022-12-07T09:31:12;14.83;;;7.10;;
71095;SDS011;58753;49.440;11.126;2022-12-07T09:33:37;18.20;;;6.57;;
71095;SDS011;58753;49.440;11.126;2022-12-07T09:36:03;14.17;;;5.37;;
71095;SDS011;58753;49.440;11.126;2022-12-07T09:38:37;14.80;;;6.55;;
71095;SDS011;58753;49.440;11.126;2022-12-07T09:41:06;15.65;;;7.38;;
71095;SDS011;58753;49.440;11.126;2022-12-07T09:43:35;16.02;;;7.28;;
71095;SDS011;58753;49.440;11.126;2022-12-07T09:46:03;15.80;;;6.80;;
71095;SDS011;58753;49.440;11.126;2022-12-07T09:48:32;18.17;;;6.18;;
71095;SDS011;58753;49.440;11.126;2022-12-07T09:51:18;15.15;;;6.47;;
71095;SDS011;58753;49.440;11.126;2022-12-07T09:53:49;14.10;;;7.00;;
71095;SDS011;58753;49.440;11.126;2022-12-07T09:56:17;13.88;;;5.53;;
71095;SDS011;58753;49.440;11.126;2022-12-07T09:58:46;11.35;;;4.78;;
71095;SDS011;58753;49.440;11.126;2022-12-07T10:04:08;15.57;;;6.77;;
71095;SDS011;58753;49.440;11.126;2022-12-07T10:06:43;14.65;;;6.45;;
71095;SDS011;58753;49.440;11.126;2022-12-07T10:09:13;15.30;;;7.18;;
71095;SDS011;58753;49.440;11.126;2022-12-07T10:14:34;12.98;;;6.30;;
71095;SDS011;58753;49.440;11.126;2022-12-07T10:17:01;16.63;;;7.53;;
71095;SDS011;58753;49.440;11.126;2022-12-07T10:19:30;13.27;;;5.85;;
71095;SDS011;58753;49.440;11.126;2022-12-07T10:22:10;15.18;;;7.90;;
71095;SDS011;58753;49.440;11.126;2022-12-07T10:24:41;13.27;;;6.00;;
71095;SDS011;58753;49.440;11.126;2022-12-07T10:27:22;21.48;;;7.95;;
71095;SDS011;58753;49.440;11.126;2022-12-07T10:29:54;17.40;;;7.60;;
71095;SDS011;58753;49.440;11.126;2022-12-07T10:34:44;16.00;;;6.97;;
71095;SDS011;58753;49.440;11.126;2022-12-07T10:45:12;14.77;;;7.03;;
71095;SDS011;58753;49.440;11.126;2022-12-07T11:01:37;16.58;;;6.88;;
71095;SDS011;58753;49.440;11.126;2022-12-07T11:04:28;14.13;;;6.72;;
71095;SDS011;58753;49.440;11.126;2022-12-07T11:15:53;12.93;;;5.80;;
71095;SDS011;58753;49.440;11.126;2022-12-07T11:24:19;12.00;;;6.43;;
71095;SDS011;58753;49.440;11.126;2022-12-07T11:35:28;11.93;;;5.82;;
71095;SDS011;58753;49.440;11.126;2022-12-07T11:38:17;11.20;;;6.20;;
71095;SDS011;58753;49.440;11.126;2022-12-07T11:40:48;16.23;;;7.40;;
71095;SDS011;58753;49.440;11.126;2022-12-07T11:43:22;13.00;;;7.10;;
71095;SDS011;58753;49.440;11.126;2022-12-07T11:48:33;16.05;;;7.75;;
71095;SDS011;58753;49.440;11.126;2022-12-07T11:51:09;17.98;;;7.75;;
71095;SDS011;58753;49.440;11.126;2022-12-07T11:53:51;13.77;;;6.27;;
71095;SDS011;58753;49.440;11.126;2022-12-07T11:56:37;15.05;;;6.80;;
71095;SDS011;58753;49.440;11.126;2022-12-07T11:59:11;14.25;;;7.22;;
71095;SDS011;58753;49.440;11.126;2022-12-07T12:06:54;14.27;;;6.97;;
71095;SDS011;58753;49.440;11.126;2022-12-07T12:22:28;14.85;;;7.70;;
71095;SDS011;58753;49.440;11.126;2022-12-07T12:25:03;14.13;;;7.05;;
71095;SDS011;58753;49.440;11.126;2022-12-07T12:27:32;16.30;;;7.75;;
71095;SDS011;58753;49.440;11.126;2022-12-07T12:30:04;13.23;;;6.55;;
71095;SDS011;58753;49.440;11.126;2022-12-07T12:32:49;13.27;;;7.20;;
71095;SDS011;58753;49.440;11.126;2022-12-07T12:35:22;19.38;;;7.80;;
71095;SDS011;58753;49.440;11.126;2022-12-07T12:38:23;15.85;;;7.88;;
71095;SDS011;58753;49.440;11.126;2022-12-07T12:41:50;11.00;;;5.28;;
71095;SDS011;58753;49.440;11.126;2022-12-07T12:44:01;11.18;;;6.50;;
71095;SDS011;58753;49.440;11.126;2022-12-07T12:56:54;13.20;;;7.22;;
71095;SDS011;58753;49.440;11.126;2022-12-07T13:04:53;12.23;;;5.78;;
71095;SDS011;58753;49.440;11.126;2022-12-07T13:10:04;16.65;;;7.63;;
71095;SDS011;58753;49.440;11.126;2022-12-07T13:12:39;11.40;;;6.67;;
71095;SDS011;58753;49.440;11.126;2022-12-07T13:15:23;12.32;;;5.30;;
71095;SDS011;58753;49.440;11.126;2022-12-07T13:28:44;15.85;;;8.25;;
71095;SDS011;58753;49.440;11.126;2022-12-07T13:33:47;16.27;;;7.32;;
71095;SDS011;58753;49.440;11.126;2022-12-07T13:36:18;13.88;;;7.68;;
71095;SDS011;58753;49.440;11.126;2022-12-07T13:38:58;14.63;;;7.20;;
71095;SDS011;58753;49.440;11.126;2022-12-07T13:41:28;13.00;;;6.88;;
71095;SDS011;58753;49.440;11.126;2022-12-07T13:49:29;16.27;;;7.90;;
71095;SDS011;58753;49.440;11.126;2022-12-07T13:54:48;14.27;;;7.03;;
71095;SDS011;58753;49.440;11.126;2022-12-07T13:57:16;13.82;;;7.05;;
71095;SDS011;58753;49.440;11.126;2022-12-07T13:59:43;17.58;;;7.78;;
71095;SDS011;58753;49.440;11.126;2022-12-07T14:02:22;16.08;;;7.60;;
71095;SDS011;58753;49.440;11.126;2022-12-07T14:05:05;17.83;;;7.77;;
71095;SDS011;58753;49.440;11.126;2022-12-07T14:11:03;19.13;;;8.43;;
71095;SDS011;58753;49.440;11.126;2022-12-07T14:16:22;16.05;;;7.43;;
71095;SDS011;58753;49.440;11.126;2022-12-07T14:18:55;16.97;;;8.43;;
71095;SDS011;58753;49.440;11.126;2022-12-07T14:21:26;16.40;;;7.95;;
71095;SDS011;58753;49.440;11.126;2022-12-07T14:26:27;17.52;;;8.25;;
71095;SDS011;58753;49.440;11.126;2022-12-07T14:29:18;16.60;;;8.80;;
71095;SDS011;58753;49.440;11.126;2022-12-07T14:31:44;16.47;;;7.80;;
71095;SDS011;58753;49.440;11.126;2022-12-07T14:34:11;16.55;;;8.20;;
71095;SDS011;58753;49.440;11.126;2022-12-07T14:36:39;15.05;;;7.75;;
71095;SDS011;58753;49.440;11.126;2022-12-07T14:39:04;14.93;;;8.03;;
71095;SDS011;58753;49.440;11.126;2022-12-07T14:41:32;17.17;;;8.30;;
71095;SDS011;58753;49.440;11.126;2022-12-07T14:44:16;19.63;;;8.75;;
71095;SDS011;58753;49.440;11.126;2022-12-07T14:46:45;16.92;;;8.25;;
71095;SDS011;58753;49.440;11.126;2022-12-07T14:49:11;16.83;;;7.90;;
71095;SDS011;58753;49.440;11.126;2022-12-07T14:51:37;18.33;;;7.77;;
71095;SDS011;58753;49.440;11.126;2022-12-07T14:54:11;15.85;;;8.80;;
71095;SDS011;58753;49.440;11.126;2022-12-07T14:56:43;20.50;;;8.27;;
71095;SDS011;58753;49.440;11.126;2022-12-07T14:59:09;15.85;;;7.95;;
71095;SDS011;58753;49.440;11.126;2022-12-07T15:01:36;21.05;;;8.57;;
71095;SDS011;58753;49.440;11.126;2022-12-07T15:04:01;18.10;;;8.82;;
71095;SDS011;58753;49.440;11.126;2022-12-07T15:06:29;20.27;;;8.80;;
71095;SDS011;58753;49.440;11.126;2022-12-07T15:08:55;16.88;;;8.35;;
71095;SDS011;58753;49.440;11.126;2022-12-07T15:11:20;18.73;;;7.70;;
71095;SDS011;58753;49.440;11.126;2022-12-07T15:13:46;12.10;;;6.37;;
71095;SDS011;58753;49.440;11.126;2022-12-07T15:16:32;12.02;;;5.97;;
71095;SDS011;58753;49.440;11.126;2022-12-07T15:18:58;13.88;;;7.10;;
71095;SDS011;58753;49.440;11.126;2022-12-07T15:21:23;13.13;;;7.57;;
71095;SDS011;58753;49.440;11.126;2022-12-07T15:23:51;14.30;;;7.40;;
71095;SDS011;58753;49.440;11.126;2022-12-07T15:26:19;15.40;;;7.55;;
71095;SDS011;58753;49.440;11.126;2022-12-07T15:28:44;16.87;;;7.93;;
71095;SDS011;58753;49.440;11.126;2022-12-07T15:31:12;20.23;;;8.55;;
71095;SDS011;58753;49.440;11.126;2022-12-07T15:33:39;17.70;;;8.70;;
71095;SDS011;58753;49.440;11.126;2022-12-07T15:36:04;23.63;;;9.97;;
71095;SDS011;58753;49.440;11.126;2022-12-07T15:38:30;16.33;;;8.50;;
71095;SDS011;58753;49.440;11.126;2022-12-07T15:40:58;21.55;;;9.52;;
71095;SDS011;58753;49.440;11.126;2022-12-07T15:43:26;17.43;;;8.90;;
71095;SDS011;58753;49.440;11.126;2022-12-07T15:46:13;22.27;;;10.32;;
71095;SDS011;58753;49.440;11.126;2022-12-07T15:48:41;20.93;;;8.93;;
71095;SDS011;58753;49.440;11.126;2022-12-07T15:51:07;20.42;;;9.48;;
71095;SDS011;58753;49.440;11.126;2022-12-07T15:53:34;16.27;;;8.93;;
71095;SDS011;58753;49.440;11.126;2022-12-07T15:56:00;17.10;;;8.80;;
71095;SDS011;58753;49.440;11.126;2022-12-07T15:58:30;16.90;;;9.00;;
71095;SDS011;58753;49.440;11.126;2022-12-07T16:00:56;19.73;;;9.23;;
71095;SDS011;58753;49.440;11.126;2022-12-07T16:03:21;20.20;;;9.07;;
71095;SDS011;58753;49.440;11.126;2022-12-07T16:05:52;14.90;;;7.78;;
71095;SDS011;58753;49.440;11.126;2022-12-07T16:08:18;19.17;;;9.83;;
71095;SDS011;58753;49.440;11.126;2022-12-07T16:10:46;15.75;;;8.38;;
71095;SDS011;58753;49.440;11.126;2022-12-07T16:13:14;21.73;;;10.15;;
71095;SDS011;58753;49.440;11.126;2022-12-07T16:15:40;17.75;;;7.95;;
71095;SDS011;58753;49.440;11.126;2022-12-07T16:18:08;16.33;;;8.20;;
71095;SDS011;58753;49.440;11.126;2022-12-07T16:20:33;17.45;;;8.50;;
71095;SDS011;58753;49.440;11.126;2022-12-07T16:23:01;18.47;;;7.60;;
71095;SDS011;58753;49.440;11.126;2022-12-07T16:25:27;17.52;;;8.95;;
71095;SDS011;58753;49.440;11.126;2022-12-07T16:27:58;17.50;;;8.75;;
71095;SDS011;58753;49.440;11.126;2022-12-07T16:30:24;13.45;;;6.75;;
71095;SDS011;58753;49.440;11.126;2022-12-07T16:32:50;16.70;;;8.90;;
71095;SDS011;58753;49.440;11.126;2022-12-07T16:35:18;20.08;;;9.88;;
71095;SDS011;58753;49.440;11.126;2022-12-07T16:37:43;19.00;;;9.17;;
71095;SDS011;58753;49.440;11.126;2022-12-07T16:40:09;20.80;;;9.45;;
71095;SDS011;58753;49.440;11.126;2022-12-07T16:42:35;16.63;;;8.20;;
71095;SDS011;58753;49.440;11.126;2022-12-07T16:45:01;17.67;;;8.13;;
71095;SDS011;58753;49.440;11.126;2022-12-07T16:47:30;20.65;;;9.85;;
71095;SDS011;58753;49.440;11.126;2022-12-07T16:49:56;29.57;;;12.20;;
71095;SDS011;58753;49.440;11.126;2022-12-07T16:52:23;26.70;;;11.80;;
71095;SDS011;58753;49.440;11.126;2022-12-07T16:54:51;24.75;;;11.02;;
71095;SDS011;58753;49.440;11.126;2022-12-07T16:57:21;19.77;;;10.77;;
71095;SDS011;58753;49.440;11.126;2022-12-07T16:59:50;31.57;;;13.83;;
71095;SDS011;58753;49.440;11.126;2022-12-07T17:02:16;26.95;;;12.60;;
71095;SDS011;58753;49.440;11.126;2022-12-07T17:04:45;27.00;;;13.43;;
71095;SDS011;58753;49.440;11.126;2022-12-07T17:07:11;29.13;;;13.30;;
71095;SDS011;58753;49.440;11.126;2022-12-07T17:09:37;25.90;;;11.80;;
71095;SDS011;58753;49.440;11.126;2022-12-07T17:12:04;34.33;;;15.93;;
71095;SDS011;58753;49.440;11.126;2022-12-07T17:14:35;32.03;;;16.55;;
71095;SDS011;58753;49.440;11.126;2022-12-07T17:17:19;32.35;;;15.80;;
71095;SDS011;58753;49.440;11.126;2022-12-07T17:19:44;36.80;;;16.23;;